Time;durP1;ratioP1;P1;durP2;ratioP2;P2;SDS_P1;SDS_P2;PMS_P1;PMS_P2;Temp;Humidity;BMP_temperature;BMP_pressure;BME280_temperature;BME280_humidity;BME280_pressure;Samples;Min_cycle;Max_cycle;Signal;HPM_P1;HPM_P2
2023/05/20 00:00:48;;;;;;;;;;;;;;;12.29;96.57;102353.72;5021399;28;20420;-72
2023/05/20 00:03:13;;;;;;;;;;;;;;;12.31;96.57;102359.00;5024493;28;19921;-71
2023/05/20 00:05:38;;;;;;;;;;;;;;;12.35;95.58;102357.84;5029578;28;20355;-70
2023/05/20 00:08:06;;;;;;;;;;;;;;;12.25;96.33;102352.16;5024235;28;20358;-72
2023/05/20 00:10:31;;;;;;;;;;;;;;;12.29;95.70;102352.81;5039669;28;19928;-71
2023/05/20 00:12:57;;;;;;;;;;;;;;;12.21;96.74;102356.00;5019901;28;19928;-70
2023/05/20 00:15:22;;;;;;;;;;;;;;;12.17;96.37;102361.66;5021694;28;19928;-71
2023/05/20 00:17:47;;;;;;;;;;;;;;;12.14;97.94;102355.50;5022078;28;20250;-70
2023/05/20 00:20:12;;;;;;;;;;;;;;;12.16;97.08;102352.69;5014843;28;19925;-71
2023/05/20 00:22:37;;;;;;;;;;;;;;;12.03;98.62;102344.50;5016822;28;19924;-71
2023/05/20 00:25:03;;;;;;;;;;;;;;;12.04;98.15;102359.69;5021556;28;20031;-72
2023/05/20 00:27:28;;;;;;;;;;;;;;;12.02;98.76;102348.16;5038333;28;19924;-71
2023/05/20 00:29:53;;;;;;;;;;;;;;;11.98;98.65;102350.13;5020338;28;20011;-72
2023/05/20 00:32:18;;;;;;;;;;;;;;;11.96;99.22;102361.94;5037400;28;20678;-72
2023/05/20 00:34:44;;;;;;;;;;;;;;;11.97;99.53;102350.22;5021136;28;20536;-70
2023/05/20 00:37:09;;;;;;;;;;;;;;;11.90;100.00;102351.56;5037962;28;20477;-71
2023/05/20 00:39:35;;;;;;;;;;;;;;;11.83;100.00;102349.22;5022230;28;19983;-72
2023/05/20 00:42:02;;;;;;;;;;;;;;;11.81;100.00;102352.94;5029299;28;20349;-71
2023/05/20 00:44:27;;;;;;;;;;;;;;;11.88;100.00;102353.47;5019697;28;20409;-70
2023/05/20 00:46:52;;;;;;;;;;;;;;;11.85;100.00;102346.44;5016708;28;20352;-70
2023/05/20 00:49:18;;;;;;;;;;;;;;;11.76;100.00;102344.31;5018335;28;22148;-72
2023/05/20 00:51:43;;;;;;;;;;;;;;;11.83;100.00;102345.66;5017930;28;20457;-71
2023/05/20 00:54:08;;;;;;;;;;;;;;;11.69;100.00;102346.47;5018225;28;19925;-71
2023/05/20 00:56:34;;;;;;;;;;;;;;;11.64;100.00;102345.88;5033739;28;19959;-71
2023/05/20 00:58:59;;;;;;;;;;;;;;;11.67;100.00;102341.19;5033973;28;19992;-72
2023/05/20 01:01:24;;;;;;;;;;;;;;;11.64;100.00;102345.88;5022624;28;20022;-71
2023/05/20 01:03:50;;;;;;;;;;;;;;;11.57;100.00;102334.59;5012766;28;19921;-72
2023/05/20 01:06:15;;;;;;;;;;;;;;;11.55;100.00;102337.38;5028742;28;19920;-72
2023/05/20 01:08:41;;;;;;;;;;;;;;;11.54;100.00;102340.16;5017107;28;19970;-71
2023/05/20 01:11:07;;;;;;;;;;;;;;;11.49;100.00;102332.34;5030505;28;19925;-71
2023/05/20 01:13:37;;;;;;;;;;;;;;;11.51;100.00;102338.53;4999579;28;19928;-71
2023/05/20 01:16:03;;;;;;;;;;;;;;;11.52;100.00;102328.66;5020988;28;20289;-72
2023/05/20 01:18:29;;;;;;;;;;;;;;;11.42;100.00;102330.97;5019344;28;19921;-73
2023/05/20 01:20:54;;;;;;;;;;;;;;;11.47;100.00;102330.72;5018524;28;19943;-72
2023/05/20 01:23:20;;;;;;;;;;;;;;;11.38;100.00;102335.66;5036168;28;20021;-75
2023/05/20 01:25:45;;;;;;;;;;;;;;;11.37;100.00;102339.31;5022233;28;20023;-73
2023/05/20 01:28:16;;;;;;;;;;;;;;;11.42;100.00;102340.88;5017795;28;19925;-71
2023/05/20 01:30:43;;;;;;;;;;;;;;;11.39;100.00;102341.91;5019869;28;19921;-73
2023/05/20 01:33:10;;;;;;;;;;;;;;;11.41;100.00;102337.31;5016914;28;20007;-73
2023/05/20 01:35:35;;;;;;;;;;;;;;;11.43;100.00;102334.53;5011680;28;19932;-73
2023/05/20 01:38:00;;;;;;;;;;;;;;;11.45;100.00;102329.94;5012023;28;20531;-72
2023/05/20 01:40:26;;;;;;;;;;;;;;;11.31;100.00;102323.53;5018699;28;19932;-72
2023/05/20 01:42:53;;;;;;;;;;;;;;;11.27;100.00;102324.66;5015472;28;19978;-73
2023/05/20 01:45:19;;;;;;;;;;;;;;;11.28;100.00;102314.78;5015025;28;19925;-73
2023/05/20 01:47:44;;;;;;;;;;;;;;;11.31;100.00;102312.78;5017771;28;20851;-72
2023/05/20 01:50:09;;;;;;;;;;;;;;;11.34;100.00;102312.59;5018947;28;21112;-71
2023/05/20 01:52:35;;;;;;;;;;;;;;;11.33;100.00;102308.16;5023493;28;19925;-72
2023/05/20 01:55:00;;;;;;;;;;;;;;;11.31;100.00;102317.28;5025246;28;19953;-72
2023/05/20 01:57:25;;;;;;;;;;;;;;;11.27;100.00;102313.03;5022302;28;19996;-74
2023/05/20 01:59:50;;;;;;;;;;;;;;;11.20;100.00;102324.13;5027040;28;19921;-71
2023/05/20 02:02:16;;;;;;;;;;;;;;;11.37;100.00;102319.63;5029185;28;19925;-71
2023/05/20 02:04:46;;;;;;;;;;;;;;;11.28;100.00;102318.31;5033103;28;20330;-73
2023/05/20 02:07:12;;;;;;;;;;;;;;;11.34;100.00;102317.13;5024353;28;19984;-73
2023/05/20 02:09:37;;;;;;;;;;;;;;;11.39;100.00;102315.88;5024527;28;19967;-73
2023/05/20 02:12:02;;;;;;;;;;;;;;;11.39;100.00;102313.19;5022285;28;20782;-72
2023/05/20 02:14:28;;;;;;;;;;;;;;;11.32;100.00;102313.66;5018878;28;19929;-73
2023/05/20 02:16:53;;;;;;;;;;;;;;;11.37;100.00;102316.94;5020866;28;19979;-72
2023/05/20 02:19:22;;;;;;;;;;;;;;;11.30;100.00;102319.09;5019412;28;19921;-73
2023/05/20 02:21:47;;;;;;;;;;;;;;;11.33;100.00;102310.84;5019625;28;22149;-72
2023/05/20 02:24:13;;;;;;;;;;;;;;;11.33;100.00;102305.47;5019346;28;19920;-73
2023/05/20 02:26:38;;;;;;;;;;;;;;;11.25;100.00;102307.78;5033523;28;19931;-72
2023/05/20 02:29:03;;;;;;;;;;;;;;;11.19;100.00;102306.28;5020228;28;19955;-73
2023/05/20 02:31:29;;;;;;;;;;;;;;;11.13;100.00;102313.84;5020401;28;19951;-74
2023/05/20 02:33:54;;;;;;;;;;;;;;;11.14;100.00;102305.66;5037973;28;19971;-73
2023/05/20 02:36:20;;;;;;;;;;;;;;;11.01;100.00;102313.56;5027411;28;19921;-74
2023/05/20 02:38:45;;;;;;;;;;;;;;;10.98;100.00;102316.44;5033473;28;19927;-72
2023/05/20 02:41:10;;;;;;;;;;;;;;;10.96;100.00;102312.97;5030032;28;19967;-73
2023/05/20 02:43:35;;;;;;;;;;;;;;;10.93;100.00;102310.44;5029980;28;19963;-73
2023/05/20 02:46:04;;;;;;;;;;;;;;;10.89;100.00;102315.09;5032404;28;19921;-72
2023/05/20 02:48:29;;;;;;;;;;;;;;;10.91;100.00;102318.59;5033432;28;20379;-73
2023/05/20 02:50:55;;;;;;;;;;;;;;;10.92;100.00;102312.25;5024076;28;19966;-73
2023/05/20 02:53:20;;;;;;;;;;;;;;;10.94;100.00;102312.19;5023960;28;19925;-73
2023/05/20 02:55:46;;;;;;;;;;;;;;;10.84;100.00;102311.84;5023792;28;20027;-73
2023/05/20 02:58:12;;;;;;;;;;;;;;;10.84;100.00;102314.53;5020217;28;20023;-73
2023/05/20 03:00:39;;;;;;;;;;;;;;;10.80;100.00;102305.75;5020374;28;19925;-74
2023/05/20 03:03:05;;;;;;;;;;;;;;;10.79;100.00;102304.00;5014146;28;20059;-73
2023/05/20 03:05:31;;;;;;;;;;;;;;;10.80;100.00;102308.44;5017098;28;20288;-72
2023/05/20 03:07:56;;;;;;;;;;;;;;;10.75;100.00;102302.44;5020121;28;20278;-72
2023/05/20 03:10:22;;;;;;;;;;;;;;;10.70;100.00;102306.34;5019634;28;19931;-73
2023/05/20 03:12:47;;;;;;;;;;;;;;;10.70;100.00;102300.97;5021027;28;19944;-73
2023/05/20 03:15:12;;;;;;;;;;;;;;;10.66;100.00;102305.66;5018840;28;20355;-72
2023/05/20 03:17:37;;;;;;;;;;;;;;;10.64;100.00;102302.19;5017051;28;19924;-73
2023/05/20 03:20:06;;;;;;;;;;;;;;;10.61;100.00;102303.19;5017755;28;20319;-73
2023/05/20 03:22:32;;;;;;;;;;;;;;;10.56;100.00;102297.25;5018648;28;19920;-73
2023/05/20 03:24:59;;;;;;;;;;;;;;;10.56;100.00;102304.41;5032392;28;19921;-73
2023/05/20 03:27:25;;;;;;;;;;;;;;;10.54;100.00;102307.19;5016692;28;19942;-73
2023/05/20 03:29:50;;;;;;;;;;;;;;;10.45;100.00;102307.69;5023037;28;20019;-73
2023/05/20 03:32:15;;;;;;;;;;;;;;;10.43;100.00;102313.16;5020743;28;19921;-72
2023/05/20 03:34:41;;;;;;;;;;;;;;;10.43;100.00;102317.63;5020919;28;19971;-73
2023/05/20 03:37:06;;;;;;;;;;;;;;;10.33;100.00;102320.75;5023013;28;19948;-73
2023/05/20 03:39:31;;;;;;;;;;;;;;;10.36;100.00;102320.59;5017707;28;22038;-73
2023/05/20 03:41:57;;;;;;;;;;;;;;;10.30;100.00;102315.59;5017852;28;20389;-73
2023/05/20 03:44:22;;;;;;;;;;;;;;;10.23;100.00;102318.66;5017353;28;20619;-73
2023/05/20 03:46:47;;;;;;;;;;;;;;;10.25;100.00;102314.97;5021427;28;20430;-70
2023/05/20 03:49:12;;;;;;;;;;;;;;;10.28;100.00;102319.28;5022150;28;21911;-72
2023/05/20 03:51:38;;;;;;;;;;;;;;;10.11;100.00;102304.06;5017593;28;19959;-74
2023/05/20 03:54:03;;;;;;;;;;;;;;;10.26;100.00;102314.00;5020242;28;19940;-73
2023/05/20 03:56:28;;;;;;;;;;;;;;;10.27;100.00;102313.06;5003129;28;20236;-74
2023/05/20 03:58:53;;;;;;;;;;;;;;;10.29;100.00;102321.03;5023673;28;19931;-72
2023/05/20 04:01:20;;;;;;;;;;;;;;;10.29;100.00;102316.53;5021710;28;19920;-73
2023/05/20 04:03:45;;;;;;;;;;;;;;;10.25;100.00;102311.38;5016319;28;19917;-72
2023/05/20 04:06:10;;;;;;;;;;;;;;;10.18;100.00;102310.84;5017809;28;19932;-72
2023/05/20 04:08:35;;;;;;;;;;;;;;;10.17;100.00;102307.31;5022046;28;20344;-71
2023/05/20 04:11:01;;;;;;;;;;;;;;;10.13;100.00;102316.47;5017313;28;20280;-71
2023/05/20 04:13:26;;;;;;;;;;;;;;;10.13;100.00;102304.84;5014518;28;21640;-73
2023/05/20 04:15:51;;;;;;;;;;;;;;;10.28;100.00;102311.22;5019684;28;20591;-73
2023/05/20 04:18:17;;;;;;;;;;;;;;;10.27;100.00;102307.69;5023214;28;19956;-73
2023/05/20 04:20:42;;;;;;;;;;;;;;;10.29;100.00;102308.47;5024564;28;19921;-74
2023/05/20 04:23:07;;;;;;;;;;;;;;;10.34;100.00;102310.91;5021057;28;19987;-74
2023/05/20 04:25:34;;;;;;;;;;;;;;;10.45;100.00;102310.38;5012952;28;20341;-73
2023/05/20 04:27:59;;;;;;;;;;;;;;;10.48;100.00;102311.06;5016848;28;20413;-73
2023/05/20 04:30:25;;;;;;;;;;;;;;;10.52;100.00;102316.25;5027456;28;20661;-74
2023/05/20 04:32:50;;;;;;;;;;;;;;;10.57;100.00;102306.16;5022885;28;20552;-74
2023/05/20 04:35:16;;;;;;;;;;;;;;;10.67;100.00;102310.06;5022413;28;19925;-73
2023/05/20 04:37:43;;;;;;;;;;;;;;;10.55;100.00;102298.19;5017490;28;20264;-72
2023/05/20 04:40:09;;;;;;;;;;;;;;;10.65;100.00;102318.19;5025289;28;19920;-73
2023/05/20 04:42:34;;;;;;;;;;;;;;;10.74;100.00;102322.19;5024490;28;19928;-72
2023/05/20 04:45:04;;;;;;;;;;;;;;;10.78;100.00;102323.78;5010373;28;20573;-73
2023/05/20 04:47:30;;;;;;;;;;;;;;;10.85;100.00;102320.75;5023678;28;19927;-72
2023/05/20 04:49:58;;;;;;;;;;;;;;;10.92;100.00;102314.09;5024460;28;19921;-74
2023/05/20 04:52:23;;;;;;;;;;;;;;;11.01;100.00;102324.31;5023754;28;20367;-72
2023/05/20 04:54:49;;;;;;;;;;;;;;;10.98;100.00;102316.44;5019511;28;19983;-72
2023/05/20 04:57:15;;;;;;;;;;;;;;;11.01;100.00;102307.31;5017170;28;19990;-73
2023/05/20 04:59:40;;;;;;;;;;;;;;;11.04;100.00;102315.22;5015623;28;22334;-73
2023/05/20 05:02:05;;;;;;;;;;;;;;;11.19;100.00;102308.97;5017206;28;19921;-71
2023/05/20 05:04:31;;;;;;;;;;;;;;;11.22;100.00;102305.25;5016941;28;19928;-72
2023/05/20 05:06:56;;;;;;;;;;;;;;;11.29;100.00;102322.75;5019431;28;19970;-73
2023/05/20 05:09:21;;;;;;;;;;;;;;;11.33;100.00;102315.38;5015628;28;19992;-73
2023/05/20 05:11:46;;;;;;;;;;;;;;;11.37;100.00;102311.56;5021280;28;19944;-73
2023/05/20 05:14:12;;;;;;;;;;;;;;;11.32;100.00;102279.53;5022910;28;19925;-74
2023/05/20 05:16:37;;;;;;;;;;;;;;;11.42;100.00;102300.53;5016130;28;20603;-73
2023/05/20 05:19:02;;;;;;;;;;;;;;;11.50;100.00;102296.44;5030554;28;19979;-74
2023/05/20 05:21:27;;;;;;;;;;;;;;;11.61;100.00;102301.19;5022022;28;19963;-72
2023/05/20 05:23:52;;;;;;;;;;;;;;;11.73;100.00;102299.59;5024449;28;20047;-72
2023/05/20 05:26:18;;;;;;;;;;;;;;;11.78;100.00;102300.19;5024947;28;19924;-74
2023/05/20 05:28:43;;;;;;;;;;;;;;;11.83;100.00;102294.53;5022471;28;19925;-73
2023/05/20 05:31:08;;;;;;;;;;;;;;;11.98;100.00;102301.69;5024526;28;19927;-73
2023/05/20 05:33:33;;;;;;;;;;;;;;;12.06;100.00;102298.56;5013481;28;19974;-73
2023/05/20 05:36:00;;;;;;;;;;;;;;;12.07;100.00;102294.91;5025974;28;19924;-73
2023/05/20 05:38:25;;;;;;;;;;;;;;;12.16;100.00;102293.47;5020417;28;20256;-73
2023/05/20 05:40:51;;;;;;;;;;;;;;;12.24;100.00;102304.66;5021127;28;20643;-73
2023/05/20 05:43:16;;;;;;;;;;;;;;;12.22;100.00;102297.59;5017832;28;20370;-71
2023/05/20 05:45:42;;;;;;;;;;;;;;;12.37;100.00;102302.06;5026168;28;20279;-73
2023/05/20 05:48:07;;;;;;;;;;;;;;;12.45;100.00;102298.88;5028781;28;20377;-73
2023/05/20 05:50:32;;;;;;;;;;;;;;;12.42;100.00;102301.75;5026797;28;20121;-74
2023/05/20 05:52:57;;;;;;;;;;;;;;;12.55;100.00;102299.16;5020359;28;19924;-73
2023/05/20 05:55:23;;;;;;;;;;;;;;;12.72;100.00;102288.16;5022702;28;19924;-73
2023/05/20 05:57:48;;;;;;;;;;;;;;;12.84;100.00;102283.84;5020859;28;19927;-72
2023/05/20 06:00:13;;;;;;;;;;;;;;;12.94;100.00;102286.81;5021075;28;19925;-73
2023/05/20 06:02:39;;;;;;;;;;;;;;;13.00;100.00;102286.38;5024553;28;19964;-74
2023/05/20 06:05:04;;;;;;;;;;;;;;;13.04;100.00;102292.47;5026818;28;19967;-72
2023/05/20 06:07:29;;;;;;;;;;;;;;;13.22;100.00;102297.59;5027251;28;20323;-73
2023/05/20 06:09:54;;;;;;;;;;;;;;;13.41;100.00;102287.34;5025980;28;19990;-73
2023/05/20 06:12:20;;;;;;;;;;;;;;;13.46;100.00;102284.38;5030622;28;19921;-74
2023/05/20 06:14:45;;;;;;;;;;;;;;;13.55;100.00;102294.50;5033497;28;19971;-74
2023/05/20 06:17:11;;;;;;;;;;;;;;;13.55;100.00;102288.28;5019559;28;19942;-76
2023/05/20 06:19:36;;;;;;;;;;;;;;;13.67;100.00;102286.56;5022500;28;20388;-73
2023/05/20 06:22:01;;;;;;;;;;;;;;;13.75;100.00;102279.66;5019247;28;19921;-74
2023/05/20 06:24:26;;;;;;;;;;;;;;;13.94;100.00;102281.97;5018761;28;20220;-73
2023/05/20 06:26:52;;;;;;;;;;;;;;;14.02;100.00;102281.44;5020070;28;20059;-72
2023/05/20 06:29:17;;;;;;;;;;;;;;;14.15;100.00;102286.00;5035782;28;19920;-73
2023/05/20 06:31:42;;;;;;;;;;;;;;;14.21;100.00;102277.44;5020165;28;19931;-73
2023/05/20 06:34:07;;;;;;;;;;;;;;;14.23;100.00;102275.50;5018255;28;19929;-73
2023/05/20 06:36:32;;;;;;;;;;;;;;;14.28;100.00;102273.34;5021958;28;19936;-74
2023/05/20 06:38:58;;;;;;;;;;;;;;;14.36;100.00;102273.66;5020784;28;19927;-73
2023/05/20 06:41:23;;;;;;;;;;;;;;;14.43;99.94;102263.28;5023718;28;19925;-76
2023/05/20 06:43:48;;;;;;;;;;;;;;;14.56;100.00;102265.97;5019166;28;19932;-74
2023/05/20 06:46:13;;;;;;;;;;;;;;;14.70;100.00;102255.03;5020375;28;20286;-75
2023/05/20 06:48:39;;;;;;;;;;;;;;;14.85;100.00;102269.25;5027942;28;19967;-71
2023/05/20 06:51:08;;;;;;;;;;;;;;;14.92;96.17;102260.69;5019299;28;20631;-71
2023/05/20 06:53:33;;;;;;;;;;;;;;;14.92;93.05;102245.34;5020859;28;20053;-73
2023/05/20 06:55:58;;;;;;;;;;;;;;;15.10;98.09;102245.81;5018847;28;20012;-73
2023/05/20 06:58:23;;;;;;;;;;;;;;;15.21;94.11;102244.16;5030238;28;20571;-73
2023/05/20 07:00:49;;;;;;;;;;;;;;;15.23;94.50;102248.44;5019205;28;21369;-73
2023/05/20 07:03:14;;;;;;;;;;;;;;;15.30;90.67;102243.47;5019071;28;19925;-73
2023/05/20 07:05:39;;;;;;;;;;;;;;;15.54;91.06;102243.41;5017616;28;19925;-71
2023/05/20 07:08:04;;;;;;;;;;;;;;;15.52;88.76;102239.94;5023590;28;20010;-73
2023/05/20 07:10:30;;;;;;;;;;;;;;;15.59;92.56;102240.38;5024916;28;19921;-76
2023/05/20 07:12:55;;;;;;;;;;;;;;;15.60;91.42;102240.25;5030087;28;20354;-73
2023/05/20 07:15:20;;;;;;;;;;;;;;;15.75;90.27;102245.47;5027807;28;19944;-73
2023/05/20 07:17:45;;;;;;;;;;;;;;;15.88;89.95;102239.97;5027058;28;19936;-73
2023/05/20 07:20:11;;;;;;;;;;;;;;;16.03;90.79;102244.19;5030260;28;19967;-74
2023/05/20 07:22:36;;;;;;;;;;;;;;;16.07;84.10;102249.34;5032407;28;19963;-73
2023/05/20 07:25:02;;;;;;;;;;;;;;;16.18;85.29;102249.34;5027720;28;20329;-73
2023/05/20 07:27:27;;;;;;;;;;;;;;;16.30;85.47;102240.25;5029826;28;20726;-73
2023/05/20 07:29:52;;;;;;;;;;;;;;;16.48;85.97;102232.50;5031779;28;19928;-73
2023/05/20 07:32:17;;;;;;;;;;;;;;;16.39;81.06;102226.97;5031167;28;19921;-74
2023/05/20 07:34:42;;;;;;;;;;;;;;;16.38;80.34;102220.66;5029125;28;19979;-76
2023/05/20 07:37:08;;;;;;;;;;;;;;;16.40;78.57;102224.09;5028892;28;19967;-72
2023/05/20 07:39:34;;;;;;;;;;;;;;;16.66;78.60;102226.53;5016339;28;20075;-76
2023/05/20 07:41:59;;;;;;;;;;;;;;;16.62;79.11;102223.22;5031154;28;20015;-73
2023/05/20 07:44:25;;;;;;;;;;;;;;;16.65;80.75;102227.53;5027032;28;19937;-76
2023/05/20 07:46:50;;;;;;;;;;;;;;;16.76;76.75;102222.09;5026845;28;19928;-74
2023/05/20 07:49:15;;;;;;;;;;;;;;;16.92;78.75;102218.09;5027981;28;19924;-73
2023/05/20 07:51:41;;;;;;;;;;;;;;;16.99;79.57;102213.06;5028543;28;19956;-75
2023/05/20 07:54:06;;;;;;;;;;;;;;;17.15;80.66;102205.38;5033633;28;19931;-74
2023/05/20 07:56:32;;;;;;;;;;;;;;;17.32;78.93;102209.38;5028779;28;20215;-73
2023/05/20 07:58:57;;;;;;;;;;;;;;;17.39;73.55;102212.41;5029849;28;19927;-72
2023/05/20 08:01:23;;;;;;;;;;;;;;;17.34;76.09;102203.78;5031324;28;19927;-74
2023/05/20 08:03:48;;;;;;;;;;;;;;;17.42;77.86;102193.16;5029199;28;20389;-74
2023/05/20 08:06:13;;;;;;;;;;;;;;;17.71;73.80;102213.34;5038667;28;19963;-72
2023/05/20 08:08:41;;;;;;;;;;;;;;;17.69;72.46;102219.75;5033474;28;20011;-75
2023/05/20 08:11:07;;;;;;;;;;;;;;;17.61;70.95;102211.41;5032906;28;19925;-69
2023/05/20 08:13:32;;;;;;;;;;;;;;;17.57;70.38;102201.84;5030534;28;19990;-71
2023/05/20 08:15:57;;;;;;;;;;;;;;;17.66;68.70;102200.16;5030597;28;20305;-73
2023/05/20 08:18:22;;;;;;;;;;;;;;;17.64;66.91;102207.59;5028478;28;19925;-74
2023/05/20 08:20:48;;;;;;;;;;;;;;;17.61;67.03;102208.69;5042833;28;19938;-73
2023/05/20 08:23:13;;;;;;;;;;;;;;;17.72;66.69;102210.50;5032765;28;20430;-73
2023/05/20 08:25:38;;;;;;;;;;;;;;;17.93;66.70;102199.59;5030748;28;20386;-72
2023/05/20 08:28:05;;;;;;;;;;;;;;;17.95;68.68;102199.47;5022036;28;20056;-72
2023/05/20 08:30:30;;;;;;;;;;;;;;;18.14;66.99;102201.47;5030479;28;19978;-71
2023/05/20 08:32:55;;;;;;;;;;;;;;;18.10;64.65;102202.72;5021488;28;19925;-73
2023/05/20 08:35:21;;;;;;;;;;;;;;;17.94;65.91;102197.75;5042315;28;20765;-72
2023/05/20 08:37:47;;;;;;;;;;;;;;;18.06;68.23;102191.25;5029448;28;20435;-73
2023/05/20 08:40:12;;;;;;;;;;;;;;;18.04;63.61;102200.56;5042806;28;19978;-76
2023/05/20 08:42:58;;;;;;;;;;;;;;;18.01;67.73;102189.94;5026509;28;19920;-73
2023/05/20 08:45:26;;;;;;;;;;;;;;;18.27;64.39;102184.94;5024693;28;19956;-71
2023/05/20 08:47:51;;;;;;;;;;;;;;;18.26;65.09;102191.34;5027337;28;20470;-75
2023/05/20 08:50:17;;;;;;;;;;;;;;;18.22;63.42;102188.03;5030789;28;19931;-75
2023/05/20 08:52:44;;;;;;;;;;;;;;;18.45;64.75;102182.38;5027664;28;19926;-75
2023/05/20 08:55:10;;;;;;;;;;;;;;;18.65;64.48;102169.69;5027370;28;19929;-74
2023/05/20 08:57:36;;;;;;;;;;;;;;;18.66;59.83;102170.56;5029896;28;19921;-75
2023/05/20 09:00:07;;;;;;;;;;;;;;;18.98;64.32;102170.34;5024312;28;20087;-76
2023/05/20 09:02:35;;;;;;;;;;;;;;;18.85;61.61;102167.00;5023799;28;19927;-71
2023/05/20 09:05:00;;;;;;;;;;;;;;;18.68;61.62;102160.38;5027790;28;19925;-73
2023/05/20 09:07:26;;;;;;;;;;;;;;;18.32;60.30;102171.75;5030414;28;19973;-71
2023/05/20 09:09:52;;;;;;;;;;;;;;;18.64;61.46;102169.84;5024602;28;19927;-71
2023/05/20 09:12:17;;;;;;;;;;;;;;;18.94;62.81;102176.16;5026982;28;19924;-74
2023/05/20 09:14:42;;;;;;;;;;;;;;;18.99;61.53;102168.47;5025043;28;19929;-73
2023/05/20 09:17:07;;;;;;;;;;;;;;;18.71;58.17;102160.97;5029411;28;19956;-74
2023/05/20 09:19:32;;;;;;;;;;;;;;;18.43;57.15;102168.06;5023990;28;20015;-74
2023/05/20 09:21:58;;;;;;;;;;;;;;;18.56;57.73;102157.81;5025131;28;20263;-73
2023/05/20 09:24:24;;;;;;;;;;;;;;;18.49;57.96;102143.03;5024732;28;19928;-76
2023/05/20 09:26:49;;;;;;;;;;;;;;;18.53;59.36;102141.75;5029179;28;19925;-70
2023/05/20 09:29:14;;;;;;;;;;;;;;;18.73;58.22;102163.53;5026766;28;19975;-73
2023/05/20 09:31:39;;;;;;;;;;;;;;;18.97;64.75;102155.00;5031178;28;20450;-70
2023/05/20 09:34:05;;;;;;;;;;;;;;;19.22;56.42;102160.00;5022136;28;20342;-72
2023/05/20 09:36:30;;;;;;;;;;;;;;;19.22;56.59;102151.84;5027460;28;20437;-73
2023/05/20 09:38:56;;;;;;;;;;;;;;;19.25;57.43;102152.41;5026238;28;19994;-71
2023/05/20 09:41:22;;;;;;;;;;;;;;;19.00;56.46;102145.69;5028549;28;19921;-74
2023/05/20 09:43:47;;;;;;;;;;;;;;;19.18;58.20;102145.81;5025325;28;19921;-73
2023/05/20 09:46:13;;;;;;;;;;;;;;;19.26;57.41;102154.13;5023376;28;20357;-72
2023/05/20 09:48:38;;;;;;;;;;;;;;;19.49;56.33;102148.38;5041997;28;20444;-75
2023/05/20 09:51:04;;;;;;;;;;;;;;;19.95;59.30;102154.00;5030096;28;20339;-70
2023/05/20 09:53:29;;;;;;;;;;;;;;;19.96;54.43;102147.53;5026686;28;19964;-75
2023/05/20 09:55:55;;;;;;;;;;;;;;;20.16;55.64;102159.19;5029430;28;19959;-71
2023/05/20 09:58:21;;;;;;;;;;;;;;;20.15;58.64;102146.56;5026914;28;19927;-73
2023/05/20 10:00:46;;;;;;;;;;;;;;;20.41;55.12;102156.75;5046347;28;20011;-74
2023/05/20 10:03:11;;;;;;;;;;;;;;;20.25;53.13;102146.53;5024345;28;20283;-74
2023/05/20 10:05:40;;;;;;;;;;;;;;;20.37;52.83;102142.59;5027995;28;19924;-73
2023/05/20 10:08:18;;;;;;;;;;;;;;;20.28;53.90;102148.09;5029465;28;19924;-70
2023/05/20 10:10:52;;;;;;;;;;;;;;;20.37;53.79;102145.31;5029194;28;20336;-71
2023/05/20 10:13:29;;;;;;;;;;;;;;;20.45;52.28;102138.25;5026482;28;20444;-74
2023/05/20 10:16:03;;;;;;;;;;;;;;;20.59;54.38;102140.44;5027636;28;20023;-69
2023/05/20 10:18:48;;;;;;;;;;;;;;;20.49;50.88;102132.31;5026741;28;20333;-73
2023/05/20 10:21:14;;;;;;;;;;;;;;;20.99;55.33;102127.38;5028031;28;19924;-70
2023/05/20 10:23:40;;;;;;;;;;;;;;;21.36;53.60;102131.75;5033951;28;19932;-72
2023/05/20 10:26:05;;;;;;;;;;;;;;;21.34;53.51;102128.34;5034969;28;19921;-72
2023/05/20 10:28:37;;;;;;;;;;;;;;;21.27;49.66;102119.94;5033568;28;20227;-70
2023/05/20 10:31:03;;;;;;;;;;;;;;;21.24;50.35;102127.56;5030793;28;20352;-74
2023/05/20 10:33:28;;;;;;;;;;;;;;;21.37;50.13;102118.94;5026658;28;19983;-71
2023/05/20 10:35:56;;;;;;;;;;;;;;;21.76;50.22;102117.69;5030367;28;19930;-71
2023/05/20 10:38:22;;;;;;;;;;;;;;;22.09;50.68;102115.97;5036285;28;19981;-70
2023/05/20 10:40:47;;;;;;;;;;;;;;;22.04;50.25;102093.72;5033731;28;19999;-70
2023/05/20 10:43:15;;;;;;;;;;;;;;;22.32;47.94;102107.16;5029662;28;19927;-73
2023/05/20 10:45:53;;;;;;;;;;;;;;;22.20;48.01;102109.34;5028706;28;19929;-70
2023/05/20 10:48:19;;;;;;;;;;;;;;;22.58;49.39;102103.47;5032168;28;19921;-70
2023/05/20 10:50:44;;;;;;;;;;;;;;;23.04;47.93;102103.84;5028658;28;19983;-74
2023/05/20 10:53:11;;;;;;;;;;;;;;;23.36;49.74;102101.25;5012890;28;19932;-72
2023/05/20 10:55:37;;;;;;;;;;;;;;;23.61;43.73;102098.44;5030838;28;19921;-71
2023/05/20 10:58:02;;;;;;;;;;;;;;;23.56;45.98;102103.63;5029711;28;19921;-71
2023/05/20 11:00:28;;;;;;;;;;;;;;;24.20;43.46;102105.44;5033956;28;19952;-73
2023/05/20 11:02:53;;;;;;;;;;;;;;;23.55;43.54;102096.44;5030527;28;19956;-70
2023/05/20 11:05:18;;;;;;;;;;;;;;;23.47;44.32;102086.31;5048016;28;19921;-72
2023/05/20 11:07:44;;;;;;;;;;;;;;;23.56;46.06;102090.75;5032587;28;19966;-70
2023/05/20 11:10:09;;;;;;;;;;;;;;;24.67;45.90;102089.88;5032345;28;20144;-71
2023/05/20 11:12:35;;;;;;;;;;;;;;;24.96;43.01;102080.06;5030413;28;19925;-72
2023/05/20 11:15:00;;;;;;;;;;;;;;;24.15;41.80;102080.44;5034563;28;19925;-70
2023/05/20 11:17:25;;;;;;;;;;;;;;;24.38;41.53;102077.72;5028170;28;19925;-71
2023/05/20 11:19:50;;;;;;;;;;;;;;;24.48;42.51;102082.97;5033262;28;20247;-74
2023/05/20 11:22:15;;;;;;;;;;;;;;;23.05;42.13;102082.75;5031598;28;20524;-74
2023/05/20 11:24:41;;;;;;;;;;;;;;;22.79;44.90;102080.22;5032800;28;20289;-70
2023/05/20 11:27:06;;;;;;;;;;;;;;;23.69;44.56;102075.66;5033595;28;20351;-71
2023/05/20 11:29:32;;;;;;;;;;;;;;;24.44;44.75;102076.16;5033468;28;19927;-71
2023/05/20 11:31:58;;;;;;;;;;;;;;;24.88;42.95;102077.38;5033284;28;20445;-71
2023/05/20 11:34:23;;;;;;;;;;;;;;;25.92;40.95;102068.38;5025261;28;20537;-71
2023/05/20 11:36:55;;;;;;;;;;;;;;;24.91;39.39;102068.78;5029249;28;19927;-71
2023/05/20 11:39:20;;;;;;;;;;;;;;;23.79;40.72;102068.06;5026656;28;20336;-75
2023/05/20 11:41:45;;;;;;;;;;;;;;;23.67;42.33;102078.56;5030270;28;19933;-70
2023/05/20 11:44:12;;;;;;;;;;;;;;;23.65;43.96;102078.75;5049660;28;20029;-73
2023/05/20 11:46:40;;;;;;;;;;;;;;;24.17;43.16;102060.03;5032395;28;21858;-72
2023/05/20 11:49:07;;;;;;;;;;;;;;;24.15;41.51;102056.63;5035080;28;20426;-71
2023/05/20 11:51:32;;;;;;;;;;;;;;;24.13;41.59;102061.44;5032197;28;20020;-71
2023/05/20 11:53:58;;;;;;;;;;;;;;;23.74;44.22;102054.03;5032947;28;19929;-73
2023/05/20 11:56:23;;;;;;;;;;;;;;;23.86;44.15;102049.88;5028796;28;19927;-70
2023/05/20 11:58:48;;;;;;;;;;;;;;;24.19;44.99;102052.47;5031167;28;20351;-69
2023/05/20 12:01:14;;;;;;;;;;;;;;;24.11;43.40;102050.63;5029317;28;20681;-71
2023/05/20 12:03:39;;;;;;;;;;;;;;;24.48;44.22;102052.78;5031492;28;20610;-73
2023/05/20 12:06:05;;;;;;;;;;;;;;;25.90;42.57;102043.84;5049473;28;20837;-73
2023/05/20 12:08:30;;;;;;;;;;;;;;;25.92;42.98;102057.38;5033124;28;20252;-71
2023/05/20 12:10:55;;;;;;;;;;;;;;;25.38;40.53;102051.13;5030200;28;19964;-71
2023/05/20 12:13:22;;;;;;;;;;;;;;;24.93;40.70;102044.72;5030127;28;20317;-71
2023/05/20 12:15:47;;;;;;;;;;;;;;;24.31;41.95;102035.59;5033466;28;19933;-72
2023/05/20 12:18:12;;;;;;;;;;;;;;;23.83;40.82;102041.16;5030750;28;19932;-71
2023/05/20 12:20:38;;;;;;;;;;;;;;;23.02;45.64;102037.41;5032852;28;19971;-72
2023/05/20 12:23:03;;;;;;;;;;;;;;;23.29;45.68;102035.34;5027516;28;20443;-72